EPRZ/RZE METAR and TAF weather

Enter ICAO airport designator
Station Type Date Time Source
EPRZ METAR 2019/10/15 19:00 UTC NOAA

EPRZ 151900Z 11009KT CAVOK 17/09 Q1013


Station Type Date Time Source
EPRZ Decoded METAR 2019/10/15 19:00 UTC NOAA

Rzeszow-Jasionka, Poland (EPRZ) 50-06N 022-03E 202M
Oct 15, 2019 - 03:00 PM EDT / 2019.10.15 1900 UTC
Wind: from the ESE (110 degrees) at 10 MPH (9 KT):0
Visibility: greater than 7 mile(s):0
Temperature: 62 F (17 C)
Dew Point: 48 F (9 C)
Relative Humidity: 59%
Pressure (altimeter): 29.91 in. Hg (1013 hPa)
ob: EPRZ 151900Z 11009KT CAVOK 17/09 Q1013
cycle: 19

Station Type Date Time Source
EPRZ TAF 2019/10/15 18:37 UTC NOAA

TAF EPRZ 151730Z 1518/1618 11007KT CAVOK
BECMG 1605/1608 22012KT PROB40
TEMPO 1607/1615 22015G25KT

Example: see airport list